createdAt,value
2022-08-20T00:00:25.758Z,990.38
2022-08-20T00:01:25.803Z,990.45
2022-08-20T00:02:25.752Z,990.46
2022-08-20T00:03:25.790Z,990.44
2022-08-20T00:04:25.726Z,990.47
2022-08-20T00:05:25.723Z,990.47
2022-08-20T00:06:26.456Z,990.49
2022-08-20T00:07:25.817Z,990.47
2022-08-20T00:08:25.710Z,990.50
2022-08-20T00:09:25.649Z,990.49
2022-08-20T00:10:25.666Z,990.43
2022-08-20T00:11:25.655Z,990.47
2022-08-20T00:12:25.636Z,990.43
2022-08-20T00:13:25.628Z,990.47
2022-08-20T00:14:25.619Z,990.42
2022-08-20T00:15:25.658Z,990.43
2022-08-20T00:16:25.599Z,990.42
2022-08-20T00:17:25.601Z,990.44
2022-08-20T00:18:25.583Z,990.48
2022-08-20T00:19:25.566Z,990.43
2022-08-20T00:20:25.530Z,990.43
2022-08-20T00:21:25.575Z,990.54
2022-08-20T00:22:25.531Z,990.52
2022-08-20T00:23:25.529Z,990.50
2022-08-20T00:24:26.395Z,990.49
2022-08-20T00:25:25.525Z,990.51
2022-08-20T00:26:25.474Z,990.50
2022-08-20T00:27:25.514Z,990.47
2022-08-20T00:28:25.501Z,990.43
2022-08-20T00:29:25.461Z,990.46
2022-08-20T00:30:25.430Z,990.48
2022-08-20T00:31:26.518Z,990.48
2022-08-20T00:32:25.434Z,990.50
2022-08-20T00:33:25.418Z,990.44
2022-08-20T00:34:25.427Z,990.47
2022-08-20T00:35:25.379Z,990.49
2022-08-20T00:36:30.055Z,990.42
2022-08-20T00:37:25.523Z,990.41
2022-08-20T00:38:25.335Z,990.43
2022-08-20T00:39:25.355Z,990.39
2022-08-20T00:40:25.330Z,990.46
2022-08-20T00:41:25.302Z,990.46
2022-08-20T00:42:25.363Z,990.49
2022-08-20T00:43:25.287Z,990.46
2022-08-20T00:44:25.298Z,990.53
2022-08-20T00:45:25.268Z,990.51
2022-08-20T00:46:31.162Z,990.45
2022-08-20T00:47:26.270Z,990.50
2022-08-20T00:48:25.242Z,990.49
2022-08-20T00:49:25.218Z,990.48
2022-08-20T00:50:25.227Z,990.54
2022-08-20T00:51:25.205Z,990.54
2022-08-20T00:52:25.207Z,990.54
2022-08-20T00:53:25.206Z,990.54
2022-08-20T00:54:25.180Z,990.54
2022-08-20T00:55:28.492Z,990.53
2022-08-20T00:56:27.900Z,990.58
2022-08-20T00:57:25.159Z,990.50
2022-08-20T00:58:25.136Z,990.55
2022-08-20T00:59:25.128Z,990.55
2022-08-20T01:00:25.147Z,990.48
2022-08-20T01:01:25.161Z,990.57
2022-08-20T01:02:25.157Z,990.60
2022-08-20T01:03:25.128Z,990.55
2022-08-20T01:04:25.065Z,990.60
2022-08-20T01:05:28.663Z,990.64
2022-08-20T01:06:25.049Z,990.61
2022-08-20T01:07:25.043Z,990.64
2022-08-20T01:08:25.053Z,990.70
2022-08-20T01:09:49.836Z,990.66
2022-08-20T01:10:25.994Z,990.66
2022-08-20T01:11:25.020Z,990.65
2022-08-20T01:12:24.980Z,990.67
2022-08-20T01:13:25.000Z,990.66
2022-08-20T01:14:25.009Z,990.67
2022-08-20T01:15:30.725Z,990.64
2022-08-20T01:16:25.950Z,990.68
2022-08-20T01:17:24.923Z,990.63
2022-08-20T01:18:24.996Z,990.62
2022-08-20T01:19:29.395Z,990.69
2022-08-20T01:20:24.884Z,990.69
2022-08-20T01:21:24.872Z,990.68
2022-08-20T01:22:24.885Z,990.67
2022-08-20T01:23:24.873Z,990.63
2022-08-20T01:24:24.848Z,990.63
2022-08-20T01:25:25.821Z,990.73
2022-08-20T01:26:24.848Z,990.62
2022-08-20T01:27:24.813Z,990.72
2022-08-20T01:28:24.834Z,990.68
2022-08-20T01:29:24.829Z,990.70
2022-08-20T01:30:24.924Z,990.74
2022-08-20T01:31:24.833Z,990.72
2022-08-20T01:32:24.884Z,990.71
2022-08-20T01:33:24.837Z,990.70
2022-08-20T01:34:24.809Z,990.76
2022-08-20T01:35:24.776Z,990.73
2022-08-20T01:36:24.760Z,990.78
2022-08-20T01:37:24.742Z,990.77
2022-08-20T01:38:25.826Z,990.76
2022-08-20T01:39:24.717Z,990.82
2022-08-20T01:40:24.773Z,990.79
2022-08-20T01:41:28.665Z,990.86
2022-08-20T01:42:24.731Z,990.79
2022-08-20T01:43:24.690Z,990.82
2022-08-20T01:44:25.068Z,990.83
2022-08-20T01:45:26.895Z,990.81
2022-08-20T01:46:24.654Z,990.78
2022-08-20T01:47:24.650Z,990.78
2022-08-20T01:48:24.627Z,990.80
2022-08-20T01:49:24.638Z,990.77
2022-08-20T01:50:24.626Z,990.74
2022-08-20T01:51:24.617Z,990.81
2022-08-20T01:52:24.554Z,990.83
2022-08-20T01:53:24.596Z,990.83
2022-08-20T01:54:24.534Z,990.84
2022-08-20T01:55:24.566Z,990.85
2022-08-20T01:56:24.547Z,990.85
2022-08-20T01:57:24.607Z,990.81
2022-08-20T01:58:24.558Z,990.80
2022-08-20T01:59:25.542Z,990.83
2022-08-20T02:00:25.552Z,990.84
2022-08-20T02:01:25.559Z,990.79
2022-08-20T02:02:24.482Z,990.79
2022-08-20T02:03:25.025Z,990.78
2022-08-20T02:04:24.443Z,990.79
2022-08-20T02:05:24.443Z,990.76
2022-08-20T02:06:25.503Z,990.79
2022-08-20T02:07:24.407Z,990.74
2022-08-20T02:08:24.418Z,990.73
2022-08-20T02:09:24.352Z,990.72
2022-08-20T02:10:24.375Z,990.82
2022-08-20T02:11:24.351Z,990.72
2022-08-20T02:12:24.527Z,990.73
2022-08-20T02:13:24.371Z,990.71
2022-08-20T02:14:24.355Z,990.74
2022-08-20T02:15:34.979Z,990.71
2022-08-20T02:16:25.347Z,990.71
2022-08-20T02:17:24.331Z,990.67
2022-08-20T02:18:24.284Z,990.76
2022-08-20T02:19:24.308Z,990.78
2022-08-20T02:20:24.292Z,990.80
2022-08-20T02:21:24.442Z,990.81
2022-08-20T02:22:24.259Z,990.79
2022-08-20T02:23:24.245Z,990.78
2022-08-20T02:24:24.267Z,990.79
2022-08-20T02:25:24.223Z,990.83
2022-08-20T02:26:24.236Z,990.82
2022-08-20T02:27:24.270Z,990.77
2022-08-20T02:28:24.152Z,990.76
2022-08-20T02:29:24.152Z,990.78
2022-08-20T02:30:28.290Z,990.76
2022-08-20T02:31:24.148Z,990.78
2022-08-20T02:32:34.026Z,990.76
2022-08-20T02:33:24.573Z,990.75
2022-08-20T02:34:24.100Z,990.75
2022-08-20T02:35:24.096Z,990.76
2022-08-20T02:36:24.121Z,990.78
2022-08-20T02:37:24.090Z,990.80
2022-08-20T02:38:24.104Z,990.81
2022-08-20T02:39:24.045Z,990.79
2022-08-20T02:40:30.224Z,990.78
2022-08-20T02:41:25.046Z,990.77
2022-08-20T02:42:24.025Z,990.80
2022-08-20T02:43:24.185Z,990.70
2022-08-20T02:44:24.021Z,990.74
2022-08-20T02:45:25.016Z,990.76
2022-08-20T02:46:24.017Z,990.74
2022-08-20T02:47:23.965Z,990.76
2022-08-20T02:48:24.008Z,990.80
2022-08-20T02:49:23.925Z,990.76
2022-08-20T02:50:23.918Z,990.82
2022-08-20T02:51:30.377Z,990.85
2022-08-20T02:52:24.955Z,990.86
2022-08-20T02:53:23.933Z,990.87
2022-08-20T02:54:23.976Z,990.88
2022-08-20T02:55:27.795Z,990.92
2022-08-20T02:56:23.892Z,990.86
2022-08-20T02:57:23.857Z,990.90
2022-08-20T02:58:23.925Z,990.90
2022-08-20T02:59:23.893Z,990.86
2022-08-20T03:00:23.830Z,990.85
2022-08-20T03:01:23.899Z,990.92
2022-08-20T03:02:23.870Z,990.91
2022-08-20T03:03:23.794Z,990.93
2022-08-20T03:04:24.053Z,990.85
2022-08-20T03:05:23.810Z,990.94
2022-08-20T03:06:23.806Z,990.92
2022-08-20T03:07:23.786Z,990.89
2022-08-20T03:08:23.782Z,990.94
2022-08-20T03:09:23.794Z,990.95
2022-08-20T03:10:23.762Z,990.92
2022-08-20T03:11:23.770Z,990.95
2022-08-20T03:12:23.697Z,990.88
2022-08-20T03:13:23.731Z,990.94
2022-08-20T03:14:23.694Z,990.95
2022-08-20T03:15:23.702Z,990.86
2022-08-20T03:16:23.695Z,990.89
2022-08-20T03:17:23.662Z,990.88
2022-08-20T03:18:23.662Z,990.84
2022-08-20T03:19:23.682Z,990.85
2022-08-20T03:20:23.977Z,990.87
2022-08-20T03:21:23.646Z,990.83
2022-08-20T03:22:23.630Z,990.82
2022-08-20T03:23:23.556Z,990.84
2022-08-20T03:24:23.599Z,990.85
2022-08-20T03:25:24.568Z,990.85
2022-08-20T03:26:23.567Z,990.87
2022-08-20T03:27:24.544Z,990.86
2022-08-20T03:28:23.503Z,990.84
2022-08-20T03:29:23.567Z,990.78
2022-08-20T03:30:23.523Z,990.82
2022-08-20T03:31:23.499Z,990.77
2022-08-20T03:32:23.483Z,990.77
2022-08-20T03:33:23.476Z,990.73
2022-08-20T03:34:23.467Z,990.74
2022-08-20T03:35:23.439Z,990.74
2022-08-20T03:36:28.873Z,990.75
2022-08-20T03:37:24.487Z,990.83
2022-08-20T03:38:32.395Z,990.83
2022-08-20T03:39:24.428Z,990.84
2022-08-20T03:40:23.392Z,990.83
2022-08-20T03:41:23.415Z,990.79
2022-08-20T03:42:23.433Z,990.80
2022-08-20T03:43:23.336Z,990.83
2022-08-20T03:44:23.399Z,990.79
2022-08-20T03:45:23.356Z,990.78
2022-08-20T03:46:24.018Z,990.76
2022-08-20T03:47:24.405Z,990.82
2022-08-20T03:48:23.428Z,990.85
2022-08-20T03:49:23.359Z,990.83
2022-08-20T03:50:23.778Z,990.85
2022-08-20T03:51:23.292Z,990.82
2022-08-20T03:52:23.268Z,990.78
2022-08-20T03:53:23.322Z,990.83
2022-08-20T03:54:23.267Z,990.82
2022-08-20T03:55:23.310Z,990.86
2022-08-20T03:56:23.274Z,990.83
2022-08-20T03:57:23.248Z,990.91
2022-08-20T03:58:34.836Z,990.87
2022-08-20T03:59:24.264Z,990.86
2022-08-20T04:00:23.237Z,990.88
2022-08-20T04:01:45.170Z,990.95
2022-08-20T04:02:24.225Z,990.96
2022-08-20T04:03:23.238Z,990.85
2022-08-20T04:04:23.177Z,990.89
2022-08-20T04:05:23.168Z,990.93
2022-08-20T04:06:23.206Z,990.90
2022-08-20T04:07:23.206Z,990.86
2022-08-20T04:08:23.222Z,990.88
2022-08-20T04:09:24.026Z,990.90
2022-08-20T04:10:23.125Z,990.89
2022-08-20T04:11:23.118Z,990.90
2022-08-20T04:12:23.138Z,990.87
2022-08-20T04:13:23.731Z,990.90
2022-08-20T04:14:23.097Z,990.89
2022-08-20T04:15:23.090Z,990.83
2022-08-20T04:16:23.073Z,990.89
2022-08-20T04:17:23.923Z,990.89
2022-08-20T04:18:23.015Z,990.88
2022-08-20T04:19:23.030Z,990.82
2022-08-20T04:20:23.049Z,990.87
2022-08-20T04:21:24.022Z,990.81
2022-08-20T04:22:22.963Z,990.84
2022-08-20T04:23:22.997Z,990.85
2022-08-20T04:24:32.505Z,990.86
2022-08-20T04:25:24.032Z,990.90
2022-08-20T04:26:22.940Z,990.86
2022-08-20T04:27:22.969Z,990.86
2022-08-20T04:28:22.938Z,990.87
2022-08-20T04:29:22.916Z,990.98
2022-08-20T04:30:22.906Z,990.95
2022-08-20T04:31:25.057Z,990.95
2022-08-20T04:32:23.851Z,991.02
2022-08-20T04:33:22.812Z,990.99
2022-08-20T04:34:23.830Z,990.97
2022-08-20T04:35:22.843Z,991.08
2022-08-20T04:36:22.784Z,991.13
2022-08-20T04:37:22.795Z,991.08
2022-08-20T04:38:22.759Z,991.11
2022-08-20T04:39:22.767Z,991.10
2022-08-20T04:40:22.738Z,991.13
2022-08-20T04:41:24.126Z,991.12
2022-08-20T04:42:22.706Z,991.12
2022-08-20T04:43:22.691Z,991.09
2022-08-20T04:44:22.707Z,991.08
2022-08-20T04:45:22.719Z,991.12
2022-08-20T04:46:22.671Z,991.12
2022-08-20T04:47:25.401Z,991.13
2022-08-20T04:48:23.663Z,991.16
2022-08-20T04:49:22.656Z,991.15
2022-08-20T04:50:22.630Z,991.11
2022-08-20T04:51:23.372Z,991.12
2022-08-20T04:52:22.640Z,991.14
2022-08-20T04:53:25.778Z,991.17
2022-08-20T04:54:23.624Z,991.18
2022-08-20T04:55:22.583Z,991.15
2022-08-20T04:56:22.584Z,991.24
2022-08-20T04:57:22.551Z,991.21
2022-08-20T04:58:22.531Z,991.22
2022-08-20T04:59:22.539Z,991.24
2022-08-20T05:00:22.528Z,991.27
2022-08-20T05:01:22.524Z,991.23
2022-08-20T05:02:22.511Z,991.22
2022-08-20T05:03:22.495Z,991.29
2022-08-20T05:04:22.565Z,991.21
2022-08-20T05:05:22.482Z,991.21
2022-08-20T05:06:22.479Z,991.30
2022-08-20T05:07:22.440Z,991.30
2022-08-20T05:08:22.425Z,991.30
2022-08-20T05:09:22.419Z,991.28
2022-08-20T05:10:22.432Z,991.33
2022-08-20T05:11:35.324Z,991.36
2022-08-20T05:12:23.396Z,991.40
2022-08-20T05:13:27.132Z,991.40
2022-08-20T05:14:24.385Z,991.40
2022-08-20T05:15:22.368Z,991.41
2022-08-20T05:16:22.388Z,991.39
2022-08-20T05:17:22.355Z,991.38
2022-08-20T05:18:22.354Z,991.46
2022-08-20T05:19:22.321Z,991.46
2022-08-20T05:20:22.303Z,991.49
2022-08-20T05:21:22.316Z,991.47
2022-08-20T05:22:22.312Z,991.48
2022-08-20T05:23:22.282Z,991.51
2022-08-20T05:24:22.357Z,991.44
2022-08-20T05:25:22.237Z,991.51
2022-08-20T05:26:22.251Z,991.46
2022-08-20T05:27:24.757Z,991.47
2022-08-20T05:28:22.284Z,991.44
2022-08-20T05:29:22.241Z,991.51
2022-08-20T05:30:22.177Z,991.52
2022-08-20T05:31:22.197Z,991.57
2022-08-20T05:32:22.165Z,991.64
2022-08-20T05:33:22.159Z,991.61
2022-08-20T05:34:22.173Z,991.60
2022-08-20T05:35:22.151Z,991.60
2022-08-20T05:36:54.086Z,991.55
2022-08-20T05:37:22.090Z,991.65
2022-08-20T05:38:22.074Z,991.67
2022-08-20T05:39:22.057Z,991.63
2022-08-20T05:40:22.090Z,991.65
2022-08-20T05:41:29.060Z,991.63
2022-08-20T05:42:24.038Z,991.68
2022-08-20T05:43:22.185Z,991.66
2022-08-20T05:44:22.029Z,991.71
2022-08-20T05:45:22.891Z,991.68
2022-08-20T05:46:21.997Z,991.67
2022-08-20T05:47:22.006Z,991.63
2022-08-20T05:48:21.974Z,991.63
2022-08-20T05:49:21.960Z,991.64
2022-08-20T05:50:23.549Z,991.62
2022-08-20T05:51:21.947Z,991.65
2022-08-20T05:52:21.938Z,991.65
2022-08-20T05:53:21.929Z,991.65
2022-08-20T05:54:21.896Z,991.60
2022-08-20T05:55:22.883Z,991.61
2022-08-20T05:56:26.727Z,991.64
2022-08-20T05:57:22.882Z,991.69
2022-08-20T05:58:21.876Z,991.69
2022-08-20T05:59:24.156Z,991.69
2022-08-20T06:00:22.842Z,991.79
2022-08-20T06:01:21.934Z,991.68
2022-08-20T06:02:21.819Z,991.75
2022-08-20T06:03:21.816Z,991.75
2022-08-20T06:04:22.394Z,991.76
2022-08-20T06:05:21.842Z,991.73
2022-08-20T06:06:44.837Z,991.73
2022-08-20T06:07:22.759Z,991.74
2022-08-20T06:08:21.800Z,991.72
2022-08-20T06:09:31.959Z,991.69
2022-08-20T06:10:22.726Z,991.70
2022-08-20T06:11:21.756Z,991.76
2022-08-20T06:12:21.715Z,991.74
2022-08-20T06:13:21.699Z,991.67
2022-08-20T06:14:21.753Z,991.67
2022-08-20T06:15:21.692Z,991.76
2022-08-20T06:16:21.667Z,991.66
2022-08-20T06:17:22.299Z,991.70
2022-08-20T06:18:28.398Z,991.73
2022-08-20T06:19:25.061Z,991.75
2022-08-20T06:20:21.633Z,991.75
2022-08-20T06:21:21.643Z,991.72
2022-08-20T06:22:26.689Z,991.72
2022-08-20T06:23:22.583Z,991.76
2022-08-20T06:24:22.603Z,991.75
2022-08-20T06:25:21.577Z,991.78
2022-08-20T06:26:24.172Z,991.70
2022-08-20T06:27:22.548Z,991.72
2022-08-20T06:28:21.529Z,991.71
2022-08-20T06:29:22.556Z,991.77
2022-08-20T06:30:21.553Z,991.83
2022-08-20T06:31:22.499Z,991.80
2022-08-20T06:32:28.838Z,991.80
2022-08-20T06:33:22.488Z,991.80
2022-08-20T06:34:21.523Z,991.86
2022-08-20T06:35:21.523Z,991.88
2022-08-20T06:36:21.444Z,991.85
2022-08-20T06:37:21.438Z,991.85
2022-08-20T06:38:21.441Z,991.85
2022-08-20T06:39:21.432Z,991.86
2022-08-20T06:40:21.542Z,991.86
2022-08-20T06:41:21.405Z,991.92
2022-08-20T06:42:21.390Z,991.88
2022-08-20T06:43:21.376Z,991.89
2022-08-20T06:44:21.398Z,991.94
2022-08-20T06:45:21.348Z,991.81
2022-08-20T06:46:21.356Z,991.90
2022-08-20T06:47:21.345Z,991.89
2022-08-20T06:48:21.330Z,991.85
2022-08-20T06:49:21.373Z,991.86
2022-08-20T06:50:21.328Z,991.87
2022-08-20T06:51:21.305Z,991.90
2022-08-20T06:52:29.965Z,991.86
2022-08-20T06:53:22.269Z,991.88
2022-08-20T06:54:21.258Z,991.88
2022-08-20T06:55:22.268Z,991.84
2022-08-20T06:56:21.250Z,991.83
2022-08-20T06:57:21.213Z,991.85
2022-08-20T06:58:35.797Z,991.86
2022-08-20T06:59:22.213Z,991.80
2022-08-20T07:00:21.247Z,991.89
2022-08-20T07:01:21.296Z,991.83
2022-08-20T07:02:21.219Z,991.84
2022-08-20T07:03:22.245Z,991.89
2022-08-20T07:04:21.141Z,991.87
2022-08-20T07:05:21.144Z,991.90
2022-08-20T07:06:21.173Z,991.90
2022-08-20T07:07:21.118Z,991.86
2022-08-20T07:08:21.105Z,991.88
2022-08-20T07:09:21.100Z,991.87
2022-08-20T07:10:21.088Z,991.88
2022-08-20T07:11:26.530Z,991.85
2022-08-20T07:12:23.964Z,991.84
2022-08-20T07:13:21.044Z,991.79
2022-08-20T07:14:21.037Z,991.84
2022-08-20T07:15:21.016Z,991.88
2022-08-20T07:16:21.010Z,991.85
2022-08-20T07:17:23.442Z,991.84
2022-08-20T07:18:28.815Z,991.88
2022-08-20T07:19:22.001Z,991.91
2022-08-20T07:20:20.970Z,991.96
2022-08-20T07:21:20.989Z,991.91
2022-08-20T07:22:20.974Z,991.90
2022-08-20T07:23:20.953Z,991.90
2022-08-20T07:24:20.926Z,991.90
2022-08-20T07:25:20.916Z,991.89
2022-08-20T07:26:20.926Z,991.93
2022-08-20T07:27:20.915Z,991.91
2022-08-20T07:28:20.897Z,991.93
2022-08-20T07:29:21.569Z,991.81
2022-08-20T07:30:20.857Z,991.91
2022-08-20T07:31:20.946Z,991.89
2022-08-20T07:32:22.430Z,991.97
2022-08-20T07:33:21.841Z,991.95
2022-08-20T07:34:20.838Z,991.93
2022-08-20T07:35:20.846Z,991.91
2022-08-20T07:36:20.894Z,991.94
2022-08-20T07:37:20.790Z,991.88
2022-08-20T07:38:20.804Z,991.88
2022-08-20T07:39:20.801Z,991.90
2022-08-20T07:40:25.693Z,991.89
2022-08-20T07:41:21.734Z,991.85
2022-08-20T07:42:20.740Z,991.88
2022-08-20T07:43:20.734Z,991.89
2022-08-20T07:44:20.730Z,991.91
2022-08-20T07:45:20.696Z,991.85
2022-08-20T07:46:21.016Z,991.92
2022-08-20T07:47:20.676Z,991.86
2022-08-20T07:48:30.911Z,991.93
2022-08-20T07:49:21.687Z,991.93
2022-08-20T07:50:20.643Z,991.98
2022-08-20T07:51:20.648Z,992.02
2022-08-20T07:52:20.625Z,992.01
2022-08-20T07:53:20.619Z,992.03
2022-08-20T07:54:20.599Z,992.00
2022-08-20T07:55:20.607Z,991.99
2022-08-20T07:56:20.583Z,991.99
2022-08-20T07:57:20.584Z,992.02
2022-08-20T07:58:20.588Z,992.01
2022-08-20T07:59:21.548Z,992.04
2022-08-20T08:00:20.548Z,992.02
2022-08-20T08:01:20.546Z,992.04
2022-08-20T08:02:20.498Z,992.01
2022-08-20T08:03:20.504Z,992.01
2022-08-20T08:04:21.491Z,992.03
2022-08-20T08:05:20.477Z,992.03
2022-08-20T08:06:30.406Z,992.00
2022-08-20T08:07:21.480Z,992.03
2022-08-20T08:08:20.436Z,992.06
2022-08-20T08:09:20.423Z,992.00
2022-08-20T08:10:20.412Z,992.06
2022-08-20T08:11:20.421Z,992.05
2022-08-20T08:12:20.388Z,992.10
2022-08-20T08:13:20.940Z,992.12
2022-08-20T08:14:20.376Z,992.15
2022-08-20T08:15:20.372Z,992.12
2022-08-20T08:16:20.372Z,992.07
2022-08-20T08:17:20.380Z,992.12
2022-08-20T08:18:20.336Z,992.10
2022-08-20T08:19:20.608Z,992.16
2022-08-20T08:20:20.319Z,992.21
2022-08-20T08:21:20.300Z,992.12
2022-08-20T08:22:20.301Z,992.20
2022-08-20T08:23:24.629Z,992.16
2022-08-20T08:24:25.317Z,992.17
2022-08-20T08:25:22.308Z,992.18
2022-08-20T08:26:20.242Z,992.14
2022-08-20T08:27:20.999Z,992.10
2022-08-20T08:28:20.216Z,992.13
2022-08-20T08:29:20.224Z,992.12
2022-08-20T08:30:20.290Z,992.13
2022-08-20T08:31:20.203Z,992.06
2022-08-20T08:32:20.221Z,992.08
2022-08-20T08:33:20.172Z,992.10
2022-08-20T08:34:20.206Z,992.10
2022-08-20T08:35:20.142Z,992.16
2022-08-20T08:36:20.136Z,992.14
2022-08-20T08:37:20.197Z,992.10
2022-08-20T08:38:20.136Z,992.13
2022-08-20T08:39:20.121Z,992.17
2022-08-20T08:40:20.184Z,992.15
2022-08-20T08:41:20.092Z,992.17
2022-08-20T08:42:20.083Z,992.29
2022-08-20T08:43:21.409Z,992.20
2022-08-20T08:44:21.403Z,992.23
2022-08-20T08:45:20.164Z,992.27
2022-08-20T08:46:20.040Z,992.21
2022-08-20T08:47:20.279Z,992.23
2022-08-20T08:48:20.064Z,992.23
2022-08-20T08:49:20.025Z,992.21
2022-08-20T08:50:38.264Z,992.22
2022-08-20T08:51:23.980Z,992.18
2022-08-20T08:52:20.229Z,992.17
2022-08-20T08:53:19.960Z,992.18
2022-08-20T08:54:20.088Z,992.16
2022-08-20T08:55:19.946Z,992.21
2022-08-20T08:56:19.948Z,992.17
2022-08-20T08:57:21.484Z,992.17
2022-08-20T08:58:19.917Z,992.16
2022-08-20T08:59:19.896Z,992.19
2022-08-20T09:00:19.985Z,992.18
2022-08-20T09:01:56.168Z,992.11
2022-08-20T09:02:20.934Z,992.13
2022-08-20T09:03:19.868Z,992.16
2022-08-20T09:04:21.712Z,992.20
2022-08-20T09:05:19.941Z,992.16
2022-08-20T09:06:19.853Z,992.19
2022-08-20T09:07:19.949Z,992.15
2022-08-20T09:08:19.805Z,992.16
2022-08-20T09:09:19.777Z,992.15
2022-08-20T09:10:23.354Z,992.13
2022-08-20T09:11:19.794Z,992.11
2022-08-20T09:12:19.796Z,992.12
2022-08-20T09:13:19.751Z,992.17
2022-08-20T09:14:19.902Z,992.09
2022-08-20T09:15:19.973Z,992.16
2022-08-20T09:16:19.869Z,992.11
2022-08-20T09:17:19.725Z,992.08
2022-08-20T09:18:19.698Z,992.16
2022-08-20T09:19:19.681Z,992.17
2022-08-20T09:20:19.746Z,992.14
2022-08-20T09:21:19.753Z,992.13
2022-08-20T09:22:19.677Z,992.20
2022-08-20T09:23:19.645Z,992.24
2022-08-20T09:24:20.341Z,992.16
2022-08-20T09:25:19.683Z,992.21
2022-08-20T09:26:19.729Z,992.20
2022-08-20T09:27:20.185Z,992.24
2022-08-20T09:28:19.655Z,992.24
2022-08-20T09:29:19.590Z,992.25
2022-08-20T09:30:19.609Z,992.22
2022-08-20T09:31:19.575Z,992.24
2022-08-20T09:32:20.869Z,992.17
2022-08-20T09:33:21.110Z,992.14
2022-08-20T09:34:19.678Z,992.21
2022-08-20T09:35:20.083Z,992.16
2022-08-20T09:36:31.764Z,992.11
2022-08-20T09:37:20.594Z,992.13
2022-08-20T09:38:19.527Z,992.17
2022-08-20T09:39:19.515Z,992.15
2022-08-20T09:40:20.993Z,992.05
2022-08-20T09:41:19.479Z,992.10
2022-08-20T09:42:19.523Z,992.07
2022-08-20T09:43:20.034Z,992.15
2022-08-20T09:44:19.455Z,992.16
2022-08-20T09:45:19.435Z,992.10
2022-08-20T09:46:19.430Z,992.14
2022-08-20T09:47:20.941Z,992.18
2022-08-20T09:48:19.414Z,992.17
2022-08-20T09:49:19.421Z,992.16
2022-08-20T09:50:19.379Z,992.19
2022-08-20T09:51:19.391Z,992.14
2022-08-20T09:52:19.443Z,992.13
2022-08-20T09:53:19.415Z,992.13
2022-08-20T09:54:23.191Z,992.06
2022-08-20T09:55:19.764Z,992.12
2022-08-20T09:56:20.907Z,992.05
2022-08-20T09:57:19.287Z,992.06
2022-08-20T09:58:19.735Z,992.03
2022-08-20T09:59:19.296Z,991.93
2022-08-20T10:00:21.424Z,992.01
2022-08-20T10:01:20.761Z,992.07
2022-08-20T10:02:19.235Z,992.04
2022-08-20T10:03:19.363Z,992.08
2022-08-20T10:04:19.268Z,992.05
2022-08-20T10:05:19.294Z,992.06
2022-08-20T10:06:19.252Z,992.03
2022-08-20T10:07:19.243Z,992.11
2022-08-20T10:08:19.238Z,992.07
2022-08-20T10:09:19.247Z,992.12
2022-08-20T10:10:19.168Z,992.08
2022-08-20T10:11:19.204Z,992.03
2022-08-20T10:12:19.143Z,992.05
2022-08-20T10:13:19.280Z,992.00
2022-08-20T10:14:19.152Z,991.99
2022-08-20T10:15:19.160Z,992.05
2022-08-20T10:16:19.147Z,992.02
2022-08-20T10:17:19.112Z,992.03
2022-08-20T10:18:19.100Z,992.06
2022-08-20T10:19:19.073Z,992.07
2022-08-20T10:20:19.172Z,992.01
2022-08-20T10:21:19.084Z,992.05
2022-08-20T10:22:19.158Z,992.03
2022-08-20T10:23:19.069Z,992.01
2022-08-20T10:24:19.057Z,991.94
2022-08-20T10:25:19.048Z,992.04
2022-08-20T10:26:18.989Z,992.07
2022-08-20T10:27:19.998Z,991.94
2022-08-20T10:28:18.989Z,992.00
2022-08-20T10:29:18.977Z,992.05
2022-08-20T10:30:19.040Z,991.97
2022-08-20T10:31:18.976Z,991.99
2022-08-20T10:32:18.980Z,991.93
2022-08-20T10:33:18.949Z,991.97
2022-08-20T10:34:18.957Z,991.95
2022-08-20T10:35:18.952Z,991.95
2022-08-20T10:36:19.926Z,991.96
2022-08-20T10:37:19.152Z,992.00
2022-08-20T10:38:19.913Z,992.05
2022-08-20T10:39:18.898Z,991.99
2022-08-20T10:40:19.577Z,992.01
2022-08-20T10:41:18.854Z,991.97
2022-08-20T10:42:18.837Z,991.95
2022-08-20T10:43:18.828Z,992.01
2022-08-20T10:44:18.853Z,991.92
2022-08-20T10:45:18.947Z,991.93
2022-08-20T10:46:18.798Z,991.93
2022-08-20T10:47:18.901Z,992.02
2022-08-20T10:48:21.526Z,991.99
2022-08-20T10:49:19.770Z,991.97
2022-08-20T10:50:18.766Z,991.95
2022-08-20T10:51:18.774Z,991.94
2022-08-20T10:52:18.764Z,992.01
2022-08-20T10:53:18.723Z,992.00
2022-08-20T10:54:18.741Z,992.00
2022-08-20T10:55:18.718Z,991.95
2022-08-20T10:56:18.718Z,991.90
2022-08-20T10:57:18.681Z,991.92
2022-08-20T10:58:18.670Z,991.91
2022-08-20T10:59:18.712Z,991.92
2022-08-20T11:00:18.639Z,991.85
2022-08-20T11:01:32.621Z,991.91
2022-08-20T11:02:19.733Z,991.85
2022-08-20T11:03:18.609Z,991.82
2022-08-20T11:04:19.583Z,991.86
2022-08-20T11:05:18.581Z,991.83
2022-08-20T11:06:18.635Z,991.87
2022-08-20T11:07:18.723Z,991.87
2022-08-20T11:08:33.337Z,991.86
2022-08-20T11:09:19.666Z,991.86
2022-08-20T11:10:18.534Z,991.84
2022-08-20T11:11:18.522Z,991.84
2022-08-20T11:12:18.536Z,991.85
2022-08-20T11:13:19.499Z,991.88
2022-08-20T11:14:18.487Z,991.88
2022-08-20T11:15:18.551Z,991.86
2022-08-20T11:16:18.476Z,991.86
2022-08-20T11:17:18.489Z,991.85
2022-08-20T11:18:18.487Z,991.86
2022-08-20T11:19:18.412Z,991.88
2022-08-20T11:20:18.462Z,991.80
2022-08-20T11:21:18.416Z,991.93
2022-08-20T11:22:18.421Z,991.77
2022-08-20T11:23:18.412Z,991.86
2022-08-20T11:24:18.389Z,991.84
2022-08-20T11:25:18.382Z,991.78
2022-08-20T11:26:18.373Z,991.77
2022-08-20T11:27:18.332Z,991.74
2022-08-20T11:28:31.898Z,991.75
2022-08-20T11:29:19.334Z,991.79
2022-08-20T11:30:18.355Z,991.75
2022-08-20T11:31:18.297Z,991.75
2022-08-20T11:32:18.294Z,991.68
2022-08-20T11:33:18.324Z,991.71
2022-08-20T11:34:18.318Z,991.75
2022-08-20T11:35:41.567Z,991.73
2022-08-20T11:36:20.394Z,991.88
2022-08-20T11:37:18.222Z,991.79
2022-08-20T11:38:18.249Z,991.80
2022-08-20T11:39:18.223Z,991.76
2022-08-20T11:40:18.250Z,991.79
2022-08-20T11:41:55.253Z,991.79
2022-08-20T11:42:18.234Z,991.83
2022-08-20T11:43:18.611Z,991.77
2022-08-20T11:44:20.915Z,991.82
2022-08-20T11:45:19.174Z,991.78
2022-08-20T11:46:18.182Z,991.83
2022-08-20T11:47:18.234Z,991.84
2022-08-20T11:48:18.355Z,991.72
2022-08-20T11:49:18.195Z,991.75
2022-08-20T11:50:19.565Z,991.74
2022-08-20T11:51:18.123Z,991.74
2022-08-20T11:52:18.421Z,991.67
2022-08-20T11:53:18.063Z,991.69
2022-08-20T11:54:18.151Z,991.68
2022-08-20T11:55:19.247Z,991.68
2022-08-20T11:56:18.090Z,991.65
2022-08-20T11:57:18.006Z,991.71
2022-08-20T11:58:18.120Z,991.74
2022-08-20T11:59:18.026Z,991.82
2022-08-20T12:00:18.140Z,991.89
2022-08-20T12:01:18.007Z,991.85
2022-08-20T12:02:18.512Z,991.86
2022-08-20T12:03:18.136Z,991.92
2022-08-20T12:04:17.986Z,991.82
2022-08-20T12:05:17.951Z,991.90
2022-08-20T12:06:18.551Z,991.94
2022-08-20T12:07:17.935Z,991.92
2022-08-20T12:08:27.682Z,991.88
2022-08-20T12:09:23.046Z,991.83
2022-08-20T12:10:18.956Z,991.92
2022-08-20T12:11:17.975Z,991.97
2022-08-20T12:12:17.966Z,991.89
2022-08-20T12:13:17.828Z,991.99
2022-08-20T12:14:17.911Z,991.97
2022-08-20T12:15:18.517Z,992.04
2022-08-20T12:16:17.853Z,992.07
2022-08-20T12:17:18.867Z,992.04
2022-08-20T12:18:17.773Z,992.15
2022-08-20T12:19:17.824Z,992.25
2022-08-20T12:20:17.737Z,992.16
2022-08-20T12:21:19.637Z,992.27
2022-08-20T12:22:24.607Z,992.32
2022-08-20T12:23:18.736Z,992.29
2022-08-20T12:24:17.772Z,992.32
2022-08-20T12:25:17.720Z,992.29
2022-08-20T12:26:17.893Z,992.30
2022-08-20T12:27:17.717Z,992.34
2022-08-20T12:28:17.799Z,992.30